createdAt,value
2017-10-16T00:01:36.084Z,9.33
2017-10-16T00:06:23.385Z,9.40
2017-10-16T00:11:10.126Z,10.57
2017-10-16T00:15:57.082Z,10.00
2017-10-16T00:20:44.412Z,11.30
2017-10-16T00:25:31.737Z,11.10
2017-10-16T00:30:18.349Z,12.30
2017-10-16T00:35:04.907Z,11.27
2017-10-16T00:39:51.488Z,11.40
2017-10-16T00:44:38.075Z,12.23
2017-10-16T00:49:24.656Z,11.80
2017-10-16T00:54:11.978Z,12.90
2017-10-16T00:58:58.528Z,13.37
2017-10-16T01:03:45.088Z,14.30
2017-10-16T01:08:31.733Z,14.07
2017-10-16T01:13:18.296Z,13.87
2017-10-16T01:18:05.106Z,14.30
2017-10-16T01:22:51.684Z,13.27
2017-10-16T01:27:38.324Z,11.87
2017-10-16T01:32:25.646Z,12.30
2017-10-16T01:37:12.221Z,11.70
2017-10-16T01:41:59.124Z,10.53
2017-10-16T01:46:46.096Z,10.67
2017-10-16T01:51:32.740Z,12.67
2017-10-16T01:56:19.305Z,11.97
2017-10-16T02:01:05.955Z,12.73
2017-10-16T02:05:52.985Z,12.90
2017-10-16T02:10:39.576Z,13.40
2017-10-16T02:15:26.117Z,15.33
2017-10-16T02:20:12.665Z,15.90
2017-10-16T02:24:59.241Z,14.47
2017-10-16T02:29:45.852Z,16.47
2017-10-16T02:34:32.477Z,16.30
2017-10-16T02:39:19.228Z,15.93
2017-10-16T02:44:05.801Z,20.30
2017-10-16T02:48:52.373Z,17.43
2017-10-16T02:53:38.944Z,17.10
2017-10-16T02:58:25.500Z,16.73
2017-10-16T03:03:12.107Z,17.80
2017-10-16T03:07:58.680Z,18.30
2017-10-16T03:12:45.982Z,17.10
2017-10-16T03:17:33.053Z,18.00
2017-10-16T03:22:20.430Z,18.10
2017-10-16T03:27:07.009Z,16.97
2017-10-16T03:31:54.377Z,16.73
2017-10-16T03:36:41.372Z,18.20
2017-10-16T03:41:28.756Z,15.20
2017-10-16T03:46:15.517Z,15.90
2017-10-16T03:51:02.120Z,17.17
2017-10-16T03:55:48.692Z,17.30
2017-10-16T04:00:35.496Z,16.03
2017-10-16T04:05:22.812Z,13.77
2017-10-16T04:10:09.409Z,16.57
2017-10-16T04:14:55.982Z,15.17
2017-10-16T04:19:49.581Z,12.17
2017-10-16T04:24:36.609Z,12.80
2017-10-16T04:29:23.177Z,14.60
2017-10-16T04:34:09.904Z,15.80
2017-10-16T04:38:56.670Z,14.90
2017-10-16T04:43:43.402Z,14.30
2017-10-16T04:48:30.660Z,14.40
2017-10-16T04:53:17.268Z,12.93
2017-10-16T04:58:03.844Z,13.17
2017-10-16T05:02:51.165Z,15.27
2017-10-16T05:07:37.877Z,15.00
2017-10-16T05:12:24.496Z,13.13
2017-10-16T05:17:11.093Z,14.17
2017-10-16T05:21:57.949Z,14.97
2017-10-16T05:26:44.544Z,13.20
2017-10-16T05:31:31.232Z,13.47
2017-10-16T05:36:17.880Z,13.30
2017-10-16T05:41:04.453Z,12.80
2017-10-16T05:45:51.772Z,10.60
2017-10-16T05:50:39.090Z,12.63
2017-10-16T05:55:25.676Z,13.10
2017-10-16T06:00:12.248Z,12.10
2017-10-16T06:04:58.804Z,12.50
2017-10-16T06:09:45.382Z,12.53
2017-10-16T06:14:31.966Z,13.37
2017-10-16T06:19:18.744Z,12.13
2017-10-16T06:24:05.333Z,15.33
2017-10-16T06:28:52.057Z,13.07
2017-10-16T06:33:38.744Z,13.97
2017-10-16T06:38:32.348Z,14.83
2017-10-16T06:43:18.961Z,14.20
2017-10-16T06:48:05.545Z,16.97
2017-10-16T06:52:52.177Z,18.27
2017-10-16T06:57:38.744Z,17.87
2017-10-16T07:02:25.330Z,19.37
2017-10-16T07:07:11.908Z,23.20
2017-10-16T07:11:59.970Z,21.00
2017-10-16T07:16:46.576Z,22.93
2017-10-16T07:21:33.897Z,21.03
2017-10-16T07:26:20.469Z,18.63
2017-10-16T07:31:07.044Z,17.50
2017-10-16T07:35:54.340Z,16.70
2017-10-16T07:40:40.897Z,18.50
2017-10-16T07:45:28.209Z,18.77
2017-10-16T07:50:14.941Z,17.70
2017-10-16T07:55:01.674Z,19.03
2017-10-16T07:59:48.301Z,15.47
2017-10-16T08:04:35.624Z,15.67
2017-10-16T08:09:22.171Z,12.67
2017-10-16T08:14:08.783Z,11.37
2017-10-16T08:18:56.104Z,12.90
2017-10-16T08:23:43.497Z,9.57
2017-10-16T08:28:30.048Z,8.40
2017-10-16T08:33:16.620Z,9.50
2017-10-16T08:38:03.238Z,8.17
2017-10-16T08:42:49.809Z,7.60
2017-10-16T08:47:36.531Z,7.67
2017-10-16T08:52:23.126Z,7.10
2017-10-16T08:57:09.713Z,7.17
2017-10-16T09:01:56.285Z,6.20
2017-10-16T09:06:43.029Z,6.30
2017-10-16T09:11:30.348Z,6.67
2017-10-16T09:16:16.935Z,8.13
2017-10-16T09:21:03.529Z,6.40
2017-10-16T09:25:50.109Z,7.50
2017-10-16T09:30:36.969Z,6.10
2017-10-16T09:35:23.534Z,6.23
2017-10-16T09:40:10.127Z,5.90
2017-10-16T09:44:56.740Z,5.43
2017-10-16T09:49:44.149Z,5.77
2017-10-16T09:54:31.709Z,5.30
2017-10-16T09:59:18.333Z,8.00
2017-10-16T10:04:05.227Z,4.63
2017-10-16T10:08:52.718Z,6.40
2017-10-16T10:13:39.319Z,8.47
2017-10-16T10:18:25.908Z,5.23
2017-10-16T10:23:13.344Z,5.07
2017-10-16T10:27:59.927Z,5.73
2017-10-16T10:32:46.593Z,5.53
2017-10-16T10:37:33.901Z,6.20
2017-10-16T10:42:20.491Z,5.20
2017-10-16T10:47:07.119Z,5.57
2017-10-16T10:51:53.728Z,4.80
2017-10-16T10:56:40.368Z,4.43
2017-10-16T11:01:27.253Z,4.63
2017-10-16T11:06:13.787Z,5.37
2017-10-16T11:11:00.374Z,3.03
2017-10-16T11:15:47.928Z,3.20
2017-10-16T11:20:34.488Z,3.40
2017-10-16T11:25:21.069Z,4.57
2017-10-16T11:30:07.645Z,3.70
2017-10-16T11:34:54.219Z,2.83
2017-10-16T11:39:40.816Z,3.90
2017-10-16T11:44:28.140Z,3.37
2017-10-16T11:49:15.477Z,3.43
2017-10-16T11:54:02.884Z,3.50
2017-10-16T11:58:49.486Z,3.60
2017-10-16T12:03:36.079Z,3.30
2017-10-16T12:08:22.685Z,2.93
2017-10-16T12:13:10.024Z,4.37
2017-10-16T12:17:57.339Z,4.37
2017-10-16T12:22:44.109Z,3.43
2017-10-16T12:27:30.748Z,3.70
2017-10-16T12:32:17.585Z,3.90
2017-10-16T12:37:04.150Z,3.40
2017-10-16T12:41:50.716Z,3.40
2017-10-16T12:46:37.313Z,3.17
2017-10-16T12:51:23.875Z,3.20
2017-10-16T12:56:11.272Z,3.30
2017-10-16T13:00:57.954Z,3.80
2017-10-16T13:05:45.261Z,3.60
2017-10-16T13:10:32.037Z,3.20
2017-10-16T13:15:18.612Z,3.40
2017-10-16T13:20:05.176Z,3.60
2017-10-16T13:24:51.720Z,3.27
2017-10-16T13:29:38.288Z,4.33
2017-10-16T13:34:25.612Z,3.50
2017-10-16T13:39:12.210Z,3.80
2017-10-16T13:43:59.388Z,3.77
2017-10-16T13:48:46.668Z,3.63
2017-10-16T13:53:33.221Z,3.60
2017-10-16T13:58:20.221Z,3.30
2017-10-16T14:03:06.805Z,3.03
2017-10-16T14:07:53.373Z,3.50
2017-10-16T14:12:39.936Z,3.17
2017-10-16T14:17:26.574Z,3.30
2017-10-16T14:22:13.140Z,3.50
2017-10-16T14:26:59.801Z,3.63
2017-10-16T14:31:46.406Z,3.20
2017-10-16T14:36:33.726Z,3.13
2017-10-16T14:41:21.045Z,3.07
2017-10-16T14:46:08.012Z,3.57
2017-10-16T14:50:54.774Z,3.30
2017-10-16T14:55:41.393Z,3.13
2017-10-16T15:00:27.993Z,3.30
2017-10-16T15:05:14.586Z,3.50
2017-10-16T15:10:02.003Z,3.60
2017-10-16T15:14:48.556Z,3.03
2017-10-16T15:19:35.108Z,3.30
2017-10-16T15:24:21.680Z,3.77
2017-10-16T15:29:09.020Z,3.90
2017-10-16T15:33:56.340Z,4.30
2017-10-16T15:38:43.644Z,3.70
2017-10-16T15:43:30.233Z,3.80
2017-10-16T15:48:16.828Z,5.20
2017-10-16T15:53:04.172Z,6.83
2017-10-16T15:57:50.879Z,7.50
2017-10-16T16:02:38.278Z,8.40
2017-10-16T16:07:24.860Z,5.43
2017-10-16T16:12:11.453Z,4.83
2017-10-16T16:16:58.012Z,5.00
2017-10-16T16:21:44.625Z,5.40
2017-10-16T16:26:31.166Z,5.53
2017-10-16T16:31:17.786Z,5.67
2017-10-16T16:36:04.384Z,5.30
2017-10-16T16:40:51.043Z,5.40
2017-10-16T16:45:37.792Z,6.60
2017-10-16T16:50:25.137Z,5.37
2017-10-16T16:55:12.826Z,6.37
2017-10-16T16:59:59.561Z,6.90
2017-10-16T17:04:46.217Z,7.60
2017-10-16T17:09:32.812Z,7.60
2017-10-16T17:14:19.403Z,9.10
2017-10-16T17:19:06.036Z,7.67
2017-10-16T17:23:52.605Z,7.73
2017-10-16T17:28:40.032Z,7.20
2017-10-16T17:33:27.465Z,7.93
2017-10-16T17:38:14.113Z,7.37
2017-10-16T17:43:01.689Z,8.07
2017-10-16T17:47:48.333Z,8.00
2017-10-16T17:52:35.002Z,8.63
2017-10-16T17:57:21.697Z,8.00
2017-10-16T18:02:09.144Z,8.00
2017-10-16T18:06:56.623Z,8.97
2017-10-16T18:11:43.409Z,9.47
2017-10-16T18:16:30.812Z,8.80
2017-10-16T18:21:17.511Z,8.60
2017-10-16T18:26:04.148Z,8.90
2017-10-16T18:30:50.937Z,7.77
2017-10-16T18:35:37.716Z,9.03
2017-10-16T18:40:24.438Z,10.20
2017-10-16T18:45:11.892Z,9.50
2017-10-16T18:49:59.320Z,11.17
2017-10-16T18:54:46.048Z,12.23
2017-10-16T18:59:33.575Z,10.53
2017-10-16T19:04:20.422Z,9.03
2017-10-16T19:09:07.841Z,7.70
2017-10-16T19:13:54.545Z,7.83
2017-10-16T19:18:41.321Z,6.80
2017-10-16T19:23:28.064Z,9.47
2017-10-16T19:28:14.738Z,10.73
2017-10-16T19:33:01.465Z,12.10
2017-10-16T19:37:49.672Z,12.40
2017-10-16T19:42:36.343Z,12.20
2017-10-16T19:47:23.053Z,10.73
2017-10-16T19:52:09.764Z,11.07
2017-10-16T19:56:56.388Z,10.47
2017-10-16T20:01:43.020Z,10.77
2017-10-16T20:06:30.124Z,11.23
2017-10-16T20:11:16.820Z,10.37
2017-10-16T20:16:03.479Z,11.50
2017-10-16T20:20:50.134Z,11.70
2017-10-16T20:25:37.489Z,11.20
2017-10-16T20:30:24.028Z,10.33
2017-10-16T20:35:10.650Z,9.77
2017-10-16T20:39:57.260Z,8.47
2017-10-16T20:44:43.927Z,9.07
2017-10-16T20:49:30.540Z,8.33
2017-10-16T20:54:17.109Z,7.43
2017-10-16T20:59:03.745Z,7.47
2017-10-16T21:03:50.316Z,8.07
2017-10-16T21:08:36.896Z,8.23
2017-10-16T21:13:23.489Z,8.17
2017-10-16T21:18:10.189Z,8.00
2017-10-16T21:22:56.797Z,9.03
2017-10-16T21:27:43.680Z,8.27
2017-10-16T21:32:30.274Z,8.10
2017-10-16T21:37:16.841Z,6.40
2017-10-16T21:42:04.224Z,7.30
2017-10-16T21:46:51.584Z,6.70
2017-10-16T21:51:38.190Z,8.20
2017-10-16T21:56:24.881Z,8.87
2017-10-16T22:01:12.203Z,7.20
2017-10-16T22:05:58.825Z,8.30
2017-10-16T22:10:45.693Z,9.57
2017-10-16T22:15:32.591Z,7.33
2017-10-16T22:20:19.328Z,7.90
2017-10-16T22:25:06.675Z,7.07
2017-10-16T22:29:53.252Z,7.60
2017-10-16T22:34:39.928Z,7.67
2017-10-16T22:39:26.717Z,6.97
2017-10-16T22:44:13.408Z,6.13
2017-10-16T22:49:00.302Z,7.63
2017-10-16T22:54:03.028Z,6.90
2017-10-16T22:58:50.364Z,7.17
2017-10-16T23:03:36.949Z,8.27
2017-10-16T23:08:23.526Z,8.03
2017-10-16T23:13:10.049Z,8.10
2017-10-16T23:17:56.635Z,8.30
2017-10-16T23:22:43.466Z,8.60
2017-10-16T23:27:30.057Z,8.60
2017-10-16T23:32:16.720Z,8.17
2017-10-16T23:37:03.637Z,8.70
2017-10-16T23:41:50.201Z,8.17
2017-10-16T23:46:37.541Z,9.77
2017-10-16T23:51:24.845Z,9.43
2017-10-16T23:56:11.423Z,9.57
